Time;durP1;ratioP1;P1;durP2;ratioP2;P2;SDS_P1;SDS_P2;PMS_P1;PMS_P2;Temp;Humidity;BMP_temperature;BMP_pressure;BME280_temperature;BME280_humidity;BME280_pressure;Samples;Min_cycle;Max_cycle;Signal;HPM_P1;HPM_P2
2022/08/26 00:02:16;;;;;;;6.80;5.43;;;19.10;83.00;;;;;;5078043;27;20477;-55
2022/08/26 00:04:43;;;;;;;15.73;5.00;;;19.00;83.10;;;;;;5077484;27;20892;-55
2022/08/26 00:07:11;;;;;;;9.10;4.77;;;19.10;82.60;;;;;;5063534;27;20492;-54
2022/08/26 00:09:38;;;;;;;6.40;4.93;;;19.10;82.40;;;;;;5079296;27;20485;-55
2022/08/26 00:12:06;;;;;;;6.20;4.47;;;19.10;82.00;;;;;;5068566;28;20989;-55
2022/08/26 00:14:33;;;;;;;7.60;4.83;;;19.10;81.60;;;;;;5079086;27;20485;-55
2022/08/26 00:16:59;;;;;;;5.07;4.30;;;19.10;82.10;;;;;;5076502;27;20473;-55
2022/08/26 00:19:27;;;;;;;9.33;4.70;;;19.00;82.50;;;;;;5079564;27;20632;-56
2022/08/26 00:21:54;;;;;;;5.67;4.17;;;19.00;82.50;;;;;;5088433;27;21029;-55
2022/08/26 00:24:22;;;;;;;6.87;5.17;;;19.00;82.20;;;;;;5069245;28;20829;-55
2022/08/26 00:26:49;;;;;;;5.80;4.23;;;19.00;82.70;;;;;;5073651;27;20670;-55
2022/08/26 00:29:16;;;;;;;5.90;4.57;;;18.90;83.00;;;;;;5077577;27;20835;-54
2022/08/26 00:31:43;;;;;;;6.80;4.57;;;18.90;82.20;;;;;;5070564;27;20578;-55
2022/08/26 00:34:10;;;;;;;7.80;4.87;;;19.00;81.60;;;;;;5078964;27;21161;-55
2022/08/26 00:36:38;;;;;;;7.33;5.00;;;19.00;81.70;;;;;;5075560;27;20488;-55
2022/08/26 00:39:06;;;;;;;5.80;4.23;;;19.00;82.10;;;;;;5065129;28;20907;-55
2022/08/26 00:41:35;;;;;;;5.30;4.27;;;18.90;82.20;;;;;;5069439;28;20489;-55
2022/08/26 00:44:03;;;;;;;8.00;4.40;;;18.80;82.40;;;;;;5071840;28;20474;-54
2022/08/26 00:46:34;;;;;;;8.17;4.73;;;18.60;83.30;;;;;;5069107;28;20733;-55
2022/08/26 00:49:07;;;;;;;6.57;4.63;;;18.60;83.90;;;;;;5068317;28;20482;-55
2022/08/26 00:51:42;;;;;;;6.97;4.73;;;18.50;83.80;;;;;;5063399;28;20511;-54
2022/08/26 00:54:10;;;;;;;11.50;5.00;;;18.40;84.00;;;;;;5092845;27;20477;-54
2022/08/26 00:56:44;;;;;;;6.00;4.50;;;18.40;83.70;;;;;;5070218;28;20966;-54
2022/08/26 00:59:13;;;;;;;7.07;4.63;;;18.40;83.90;;;;;;5070317;28;20478;-54
2022/08/26 01:01:42;;;;;;;5.73;4.50;;;18.40;83.90;;;;;;5069040;28;20838;-54
2022/08/26 01:04:09;;;;;;;9.07;5.10;;;18.40;83.50;;;;;;5065868;28;20478;-54
2022/08/26 01:06:37;;;;;;;5.37;4.33;;;18.40;83.60;;;;;;5082419;28;20478;-54
2022/08/26 01:09:04;;;;;;;7.43;5.40;;;18.50;83.40;;;;;;5070360;28;20556;-54
2022/08/26 01:11:31;;;;;;;7.60;5.23;;;18.40;83.60;;;;;;5075102;28;20639;-55
2022/08/26 01:14:02;;;;;;;6.70;4.37;;;18.40;83.70;;;;;;5075848;28;20485;-54
2022/08/26 01:16:31;;;;;;;6.13;4.30;;;18.30;83.90;;;;;;5073113;28;20480;-54
2022/08/26 01:19:02;;;;;;;6.67;4.50;;;18.20;84.40;;;;;;5072932;28;21389;-54
2022/08/26 01:21:35;;;;;;;5.97;4.60;;;18.20;84.40;;;;;;5072562;28;20496;-55
2022/08/26 01:24:05;;;;;;;5.50;4.40;;;18.10;85.80;;;;;;5074973;28;21153;-55
2022/08/26 01:26:35;;;;;;;9.50;4.30;;;17.80;87.10;;;;;;5075296;28;20494;-54
2022/08/26 01:29:05;;;;;;;8.00;4.37;;;17.80;86.60;;;;;;5074480;28;20801;-55
2022/08/26 01:31:36;;;;;;;7.00;4.53;;;17.80;86.40;;;;;;5070357;28;20466;-54
2022/08/26 01:34:09;;;;;;;9.27;5.40;;;17.80;87.00;;;;;;5074668;28;20501;-53
2022/08/26 01:36:37;;;;;;;5.80;4.87;;;17.80;87.50;;;;;;5067735;28;20494;-54
2022/08/26 01:39:06;;;;;;;7.80;5.03;;;17.80;86.50;;;;;;5063290;28;20477;-54
2022/08/26 01:41:35;;;;;;;5.20;4.70;;;17.80;86.40;;;;;;5085378;28;20470;-54
2022/08/26 01:44:04;;;;;;;6.90;4.23;;;17.80;86.30;;;;;;5074809;28;20900;-54
2022/08/26 01:46:32;;;;;;;6.70;5.20;;;17.80;86.10;;;;;;5073202;28;20484;-54
2022/08/26 01:49:03;;;;;;;4.90;4.20;;;17.80;86.00;;;;;;5069904;28;20488;-54
2022/08/26 01:51:34;;;;;;;4.90;4.20;;;17.80;85.50;;;;;;5070707;28;20484;-54
2022/08/26 01:54:01;;;;;;;9.40;4.60;;;17.80;86.20;;;;;;5075628;28;20477;-54
2022/08/26 01:56:29;;;;;;;5.60;4.37;;;17.80;85.90;;;;;;5073091;28;21010;-53
2022/08/26 01:58:59;;;;;;;6.67;4.50;;;17.80;85.90;;;;;;5070442;28;20485;-54
2022/08/26 02:01:27;;;;;;;9.47;4.83;;;17.80;85.70;;;;;;5066768;28;20488;-54
2022/08/26 02:04:01;;;;;;;4.80;4.03;;;17.80;86.30;;;;;;5080931;28;20481;-54
2022/08/26 02:06:27;;;;;;;5.33;4.33;;;17.80;87.00;;;;;;5071463;28;20470;-55
2022/08/26 02:08:56;;;;;;;7.97;4.47;;;17.80;87.20;;;;;;5072506;28;20474;-54
2022/08/26 02:11:23;;;;;;;7.90;4.80;;;17.90;86.80;;;;;;5077926;28;20477;-54
2022/08/26 02:13:54;;;;;;;7.83;5.60;;;17.90;86.40;;;;;;5070632;28;20496;-54
2022/08/26 02:16:26;;;;;;;7.00;4.77;;;17.90;86.60;;;;;;5070163;28;20873;-54
2022/08/26 02:18:55;;;;;;;9.13;5.53;;;17.80;86.50;;;;;;5065926;28;20489;-54
2022/08/26 02:21:22;;;;;;;9.20;5.50;;;17.70;86.80;;;;;;5086363;28;20474;-54
2022/08/26 02:23:50;;;;;;;5.43;4.37;;;17.60;86.70;;;;;;5073936;28;20543;-54
2022/08/26 02:26:20;;;;;;;4.90;4.37;;;17.60;87.20;;;;;;5070932;28;20477;-54
2022/08/26 02:28:53;;;;;;;5.33;4.73;;;17.50;88.30;;;;;;5064355;28;20481;-54
2022/08/26 02:31:19;;;;;;;6.50;4.83;;;17.50;88.20;;;;;;5067702;28;20485;-53
2022/08/26 02:33:46;;;;;;;8.80;5.03;;;17.50;87.40;;;;;;5071891;28;20478;-54
2022/08/26 02:36:19;;;;;;;8.10;4.50;;;17.50;87.40;;;;;;5071261;28;20496;-54
2022/08/26 02:38:45;;;;;;;7.63;5.17;;;17.70;87.20;;;;;;5094723;27;20487;-54
2022/08/26 02:41:12;;;;;;;7.80;5.13;;;17.70;86.20;;;;;;5077411;27;20730;-54
2022/08/26 02:43:39;;;;;;;7.63;4.90;;;17.70;86.20;;;;;;5070809;28;20491;-54
2022/08/26 02:46:07;;;;;;;7.60;5.60;;;17.70;86.00;;;;;;5072932;28;20477;-54
2022/08/26 02:48:33;;;;;;;11.87;5.53;;;17.70;85.90;;;;;;5070806;28;21022;-54
2022/08/26 02:51:01;;;;;;;6.40;4.30;;;17.70;85.90;;;;;;5072742;28;20489;-54
2022/08/26 02:53:28;;;;;;;6.00;4.60;;;17.70;85.80;;;;;;5073282;28;20735;-54
2022/08/26 02:55:55;;;;;;;9.53;4.83;;;17.40;87.90;;;;;;5072759;28;20712;-54
2022/08/26 02:58:22;;;;;;;6.67;4.97;;;17.20;89.60;;;;;;5072035;28;21011;-54
2022/08/26 03:00:49;;;;;;;5.30;4.53;;;17.00;90.20;;;;;;5071783;28;20580;-54
2022/08/26 03:03:17;;;;;;;7.97;5.20;;;16.90;90.30;;;;;;5070131;28;20927;-54
2022/08/26 03:05:43;;;;;;;6.80;4.77;;;16.90;90.20;;;;;;5071629;28;20489;-54
2022/08/26 03:08:11;;;;;;;6.47;5.03;;;16.90;90.00;;;;;;5070049;28;20904;-54
2022/08/26 03:10:38;;;;;;;9.10;4.43;;;16.90;89.20;;;;;;5068560;28;20509;-54
2022/08/26 03:13:04;;;;;;;6.03;4.23;;;17.00;89.70;;;;;;5079274;28;20477;-55
2022/08/26 03:15:32;;;;;;;5.70;4.60;;;17.10;89.20;;;;;;5073938;28;20478;-54
2022/08/26 03:17:58;;;;;;;10.00;4.53;;;17.00;89.60;;;;;;5062124;28;20476;-54
2022/08/26 03:20:26;;;;;;;6.20;5.37;;;17.00;89.90;;;;;;5072617;28;21223;-54
2022/08/26 03:22:54;;;;;;;9.30;4.50;;;17.00;90.00;;;;;;5076866;28;20493;-54
2022/08/26 03:25:21;;;;;;;9.70;5.20;;;17.00;90.20;;;;;;5062922;28;20911;-54
2022/08/26 03:27:48;;;;;;;9.20;4.77;;;17.00;90.20;;;;;;5068528;28;20493;-53
2022/08/26 03:33:00;;;;;;;12.90;4.67;;;17.00;89.50;;;;;;5071892;28;20525;-53
2022/08/26 03:35:28;;;;;;;13.50;4.97;;;17.00;89.20;;;;;;5068435;28;21020;-54
2022/08/26 03:37:55;;;;;;;8.10;5.30;;;17.00;90.00;;;;;;5066449;28;20493;-54
2022/08/26 03:40:22;;;;;;;8.17;4.97;;;17.10;90.00;;;;;;5068966;28;20500;-53
2022/08/26 03:42:49;;;;;;;9.40;5.03;;;17.10;90.00;;;;;;5075240;28;20848;-53
2022/08/26 03:45:19;;;;;;;9.30;5.30;;;17.20;89.20;;;;;;5068972;28;20485;-54
2022/08/26 03:47:47;;;;;;;7.60;5.30;;;17.20;89.70;;;;;;5073962;28;20739;-53
2022/08/26 03:50:16;;;;;;;5.97;4.77;;;17.20;89.60;;;;;;5067456;28;20478;-53
2022/08/26 03:52:45;;;;;;;10.40;4.60;;;17.10;89.00;;;;;;5070963;28;21299;-53
2022/08/26 03:55:12;;;;;;;7.13;4.93;;;17.00;89.60;;;;;;5070242;28;21083;-53
2022/08/26 03:57:40;;;;;;;7.03;4.93;;;16.90;90.40;;;;;;5065858;28;20478;-53
2022/08/26 04:00:12;;;;;;;7.00;5.03;;;16.80;90.40;;;;;;5066871;28;20890;-54
2022/08/26 04:02:38;;;;;;;5.70;4.30;;;16.80;90.70;;;;;;5060552;28;21073;-54
2022/08/26 04:05:06;;;;;;;9.33;5.00;;;16.90;90.50;;;;;;5068473;28;21521;-53
2022/08/26 04:07:32;;;;;;;5.40;4.00;;;16.90;90.50;;;;;;5080259;28;20500;-54
2022/08/26 04:10:00;;;;;;;5.77;4.27;;;16.90;90.40;;;;;;5070911;28;21402;-54
2022/08/26 04:12:28;;;;;;;8.83;5.90;;;16.90;90.20;;;;;;5069290;28;20482;-54
2022/08/26 04:14:55;;;;;;;7.37;4.70;;;16.90;90.10;;;;;;5071961;28;20632;-54
2022/08/26 04:17:24;;;;;;;8.70;4.97;;;16.90;89.40;;;;;;5064975;28;20847;-54
2022/08/26 04:19:51;;;;;;;12.70;4.73;;;16.90;90.00;;;;;;5080082;28;20565;-54
2022/08/26 04:22:18;;;;;;;7.20;5.17;;;16.80;90.00;;;;;;5072179;28;21378;-54
2022/08/26 04:24:45;;;;;;;6.60;4.60;;;16.80;90.10;;;;;;5065377;28;20607;-54
2022/08/26 04:27:13;;;;;;;9.67;5.03;;;16.60;91.00;;;;;;5071362;28;20550;-53
2022/08/26 04:29:40;;;;;;;5.60;4.30;;;16.60;90.90;;;;;;5070708;28;20470;-54
2022/08/26 04:32:07;;;;;;;7.40;4.73;;;16.60;90.80;;;;;;5069051;28;20876;-54
2022/08/26 04:34:34;;;;;;;6.00;4.67;;;16.60;90.50;;;;;;5070316;28;20575;-54
2022/08/26 04:37:01;;;;;;;7.97;5.30;;;16.50;91.10;;;;;;5073882;28;20486;-53
2022/08/26 04:39:28;;;;;;;8.80;5.07;;;16.40;91.40;;;;;;5070341;28;20781;-53
2022/08/26 04:41:55;;;;;;;7.33;4.30;;;16.40;91.90;;;;;;5065126;28;20482;-53
2022/08/26 04:44:24;;;;;;;6.50;5.00;;;16.40;91.50;;;;;;5072250;28;20565;-53
2022/08/26 04:46:51;;;;;;;8.00;5.40;;;16.40;91.40;;;;;;5071349;28;20470;-53
2022/08/26 04:49:20;;;;;;;8.23;4.73;;;16.40;91.20;;;;;;5070418;28;20481;-53
2022/08/26 04:51:47;;;;;;;7.60;5.03;;;16.30;91.50;;;;;;5065836;28;20485;-53
2022/08/26 04:54:15;;;;;;;6.60;4.77;;;16.20;91.60;;;;;;5072274;28;20473;-53
2022/08/26 04:56:43;;;;;;;7.10;4.73;;;16.30;91.40;;;;;;5067144;28;20482;-53
2022/08/26 04:59:14;;;;;;;6.80;4.07;;;16.30;91.30;;;;;;5088250;28;20478;-53
2022/08/26 05:01:44;;;;;;;9.23;5.60;;;16.30;91.30;;;;;;5068646;28;20524;-53
2022/08/26 05:04:10;;;;;;;6.93;5.07;;;16.30;91.70;;;;;;5070616;28;21156;-53
2022/08/26 05:06:38;;;;;;;9.03;5.30;;;16.20;92.50;;;;;;5070942;28;20486;-53
2022/08/26 05:09:05;;;;;;;8.00;5.03;;;;;;;;;;5070090;28;21371;-53
2022/08/26 05:11:32;;;;;;;6.17;4.70;;;16.40;91.60;;;;;;5070195;28;21004;-53
2022/08/26 05:13:59;;;;;;;6.70;5.67;;;16.40;91.40;;;;;;5071729;27;20756;-53
2022/08/26 05:16:26;;;;;;;7.57;5.57;;;16.40;91.50;;;;;;5072396;28;20485;-53
2022/08/26 05:18:54;;;;;;;7.47;5.93;;;16.50;91.40;;;;;;5069287;28;20482;-53
2022/08/26 05:21:23;;;;;;;8.10;5.37;;;16.60;91.20;;;;;;5070359;28;21136;-54
2022/08/26 05:23:51;;;;;;;8.40;5.27;;;16.60;91.30;;;;;;5071636;28;20486;-53
2022/08/26 05:26:18;;;;;;;8.30;5.50;;;16.70;91.40;;;;;;5071692;28;20477;-53
2022/08/26 05:28:45;;;;;;;9.00;5.53;;;16.80;91.40;;;;;;5069083;28;20861;-53
2022/08/26 05:31:14;;;;;;;8.23;4.87;;;17.00;91.10;;;;;;5069559;28;20556;-53
2022/08/26 05:33:42;;;;;;;9.33;5.27;;;17.10;91.00;;;;;;5069791;28;21021;-53
2022/08/26 05:36:12;;;;;;;6.53;4.53;;;17.20;91.20;;;;;;5067170;28;20967;-53
2022/08/26 05:38:39;;;;;;;7.57;5.57;;;17.30;91.00;;;;;;5067467;28;20486;-53
2022/08/26 05:41:14;;;;;;;9.10;5.90;;;17.30;91.10;;;;;;5070721;28;20478;-53
2022/08/26 05:43:41;;;;;;;5.63;4.67;;;17.40;91.20;;;;;;5067967;28;20469;-52
2022/08/26 05:46:07;;;;;;;10.47;5.40;;;17.50;90.90;;;;;;5069237;28;20490;-53
2022/08/26 05:48:34;;;;;;;9.40;5.50;;;17.50;90.80;;;;;;5068739;28;20681;-53
2022/08/26 05:51:03;;;;;;;10.70;6.17;;;17.60;90.50;;;;;;5069675;28;20488;-53
2022/08/26 05:53:32;;;;;;;8.80;4.50;;;17.80;90.90;;;;;;5094975;27;20487;-53
2022/08/26 05:55:59;;;;;;;15.40;7.37;;;17.70;91.20;;;;;;5080752;27;20525;-53
2022/08/26 05:58:27;;;;;;;8.70;5.63;;;17.70;91.40;;;;;;5074022;28;21089;-53
2022/08/26 06:00:59;;;;;;;7.20;5.40;;;17.80;91.50;;;;;;5069552;28;20477;-53
2022/08/26 06:03:26;;;;;;;7.10;5.73;;;17.90;91.60;;;;;;5077872;28;20492;-53
2022/08/26 06:05:53;;;;;;;11.53;6.23;;;18.00;91.90;;;;;;5074716;28;20957;-53
2022/08/26 06:08:20;;;;;;;9.00;6.90;;;18.00;92.10;;;;;;5073031;28;20843;-53
2022/08/26 06:10:50;;;;;;;12.73;7.17;;;18.00;92.50;;;;;;5074127;28;20474;-53
2022/08/26 06:13:18;;;;;;;17.70;7.20;;;18.20;92.60;;;;;;5054287;28;20619;-52
2022/08/26 06:15:47;;;;;;;12.67;6.83;;;18.30;92.20;;;;;;5074859;28;20493;-52
2022/08/26 06:18:15;;;;;;;10.53;6.87;;;18.50;91.90;;;;;;5071058;28;20473;-53
2022/08/26 06:20:43;;;;;;;8.80;6.10;;;18.80;91.90;;;;;;5074979;28;20486;-52
2022/08/26 06:25:57;;;;;;;11.17;6.97;;;19.00;92.10;;;;;;5062667;28;20882;-52
2022/08/26 06:28:24;;;;;;;8.40;6.17;;;19.10;92.60;;;;;;5064779;28;20497;-52
2022/08/26 06:30:52;;;;;;;10.00;7.30;;;19.20;92.40;;;;;;5083693;28;20505;-52
2022/08/26 06:33:19;;;;;;;10.30;5.73;;;19.70;92.20;;;;;;5074563;28;20481;-52
2022/08/26 06:35:47;;;;;;;8.83;6.73;;;20.20;91.90;;;;;;5074298;28;20500;-52
2022/08/26 06:38:14;;;;;;;9.27;6.60;;;20.70;91.20;;;;;;5072293;28;20567;-52
2022/08/26 06:40:42;;;;;;;13.50;7.27;;;21.30;90.20;;;;;;5068474;28;20474;-52
2022/08/26 06:43:10;;;;;;;9.50;6.43;;;21.30;90.30;;;;;;5059922;27;20483;-52
2022/08/26 06:45:38;;;;;;;9.23;7.27;;;21.90;90.30;;;;;;5095180;27;20505;-52
2022/08/26 06:48:05;;;;;;;12.33;7.50;;;22.70;89.70;;;;;;5068272;28;20550;-52
2022/08/26 06:50:32;;;;;;;9.93;7.10;;;23.00;87.40;;;;;;5072354;28;20493;-52
2022/08/26 06:52:58;;;;;;;9.00;6.20;;;23.10;87.20;;;;;;5073962;28;20485;-52
2022/08/26 06:55:25;;;;;;;8.98;6.78;;;23.80;85.90;;;;;;5071846;28;20514;-52
2022/08/26 06:57:52;;;;;;;13.50;7.63;;;24.10;83.60;;;;;;5072885;28;20328;-52
2022/08/26 07:00:20;;;;;;;8.13;5.77;;;24.50;82.90;;;;;;5073512;28;20478;-53
2022/08/26 07:02:47;;;;;;;8.87;6.27;;;24.60;82.60;;;;;;5072852;28;20469;-52
2022/08/26 07:05:14;;;;;;;7.97;5.93;;;25.50;80.90;;;;;;5072806;28;20913;-52
2022/08/26 07:07:41;;;;;;;12.83;6.60;;;25.60;80.80;;;;;;5070527;28;20990;-53
2022/08/26 07:10:08;;;;;;;9.47;6.30;;;26.40;79.50;;;;;;5072401;28;21003;-52
2022/08/26 07:12:36;;;;;;;9.40;6.57;;;27.00;76.80;;;;;;5071651;27;20986;-54
2022/08/26 07:15:03;;;;;;;10.43;6.87;;;27.10;76.40;;;;;;5071327;28;20478;-53
2022/08/26 07:17:31;;;;;;;9.43;6.23;;;27.60;73.70;;;;;;5073450;28;20482;-53
2022/08/26 07:19:57;;;;;;;8.87;6.60;;;27.80;72.20;;;;;;5071728;28;20672;-56
2022/08/26 07:22:24;;;;;;;9.73;6.20;;;27.90;73.00;;;;;;5072691;28;20480;-52
2022/08/26 07:24:51;;;;;;;9.50;7.00;;;28.20;71.80;;;;;;5075691;28;20473;-52
2022/08/26 07:27:18;;;;;;;6.60;6.00;;;28.30;72.40;;;;;;5072248;27;20475;-52
2022/08/26 07:29:44;;;;;;;8.73;6.47;;;28.40;72.60;;;;;;5075900;27;20493;-53
2022/08/26 07:32:13;;;;;;;8.33;6.20;;;28.60;70.40;;;;;;5061765;28;21400;-53
2022/08/26 07:34:41;;;;;;;10.23;5.90;;;28.60;71.20;;;;;;5060289;27;20484;-52
2022/08/26 07:37:08;;;;;;;7.45;5.50;;;28.50;69.80;;;;;;5074216;27;20452;-53
2022/08/26 07:39:35;;;;;;;6.63;5.93;;;28.40;69.50;;;;;;5092837;27;20241;-53
2022/08/26 07:42:03;;;;;;;7.17;6.40;;;28.40;69.80;;;;;;5081296;27;20990;-52
2022/08/26 07:44:30;;;;;;;7.07;6.37;;;28.30;69.50;;;;;;5074449;27;20927;-53
2022/08/26 07:46:57;;;;;;;7.40;6.70;;;28.10;70.70;;;;;;5082693;27;20486;-52
2022/08/26 07:49:25;;;;;;;8.23;6.37;;;28.20;70.00;;;;;;5084184;27;20868;-52
2022/08/26 07:51:54;;;;;;;13.70;6.53;;;28.10;69.40;;;;;;5080876;27;20869;-53
2022/08/26 07:54:22;;;;;;;6.40;5.60;;;28.30;68.70;;;;;;5082948;27;20512;-52
2022/08/26 07:56:48;;;;;;;6.50;5.50;;;28.60;70.40;;;;;;5080479;27;20478;-52
2022/08/26 07:59:16;;;;;;;6.20;5.60;;;29.00;69.40;;;;;;5080466;27;21035;-52
2022/08/26 08:01:43;;;;;;;6.03;5.43;;;29.10;68.10;;;;;;5078972;27;20515;-51
2022/08/26 08:04:10;;;;;;;7.87;6.00;;;29.10;66.80;;;;;;5082323;27;20477;-52
2022/08/26 08:06:37;;;;;;;7.63;5.70;;;29.10;68.70;;;;;;5080859;27;20847;-52
2022/08/26 08:09:06;;;;;;;9.80;6.03;;;29.20;67.60;;;;;;5079433;27;20504;-53
2022/08/26 08:11:32;;;;;;;5.73;5.23;;;29.40;67.20;;;;;;5081164;27;20476;-53
2022/08/26 08:14:00;;;;;;;10.60;5.97;;;29.60;67.40;;;;;;5080350;27;20893;-53
2022/08/26 08:16:28;;;;;;;7.77;5.67;;;30.00;66.10;;;;;;5082437;28;20440;-52
2022/08/26 08:18:56;;;;;;;12.70;7.93;;;30.10;66.80;;;;;;5079302;27;20975;-52
2022/08/26 08:21:23;;;;;;;7.63;5.57;;;30.60;64.80;;;;;;5084651;27;20551;-52
2022/08/26 08:23:50;;;;;;;7.10;5.63;;;30.90;64.80;;;;;;5097001;27;20490;-52
2022/08/26 08:26:18;;;;;;;5.93;4.87;;;31.30;63.80;;;;;;5081647;27;20484;-52
2022/08/26 08:28:46;;;;;;;9.60;6.33;;;31.50;62.70;;;;;;5077634;28;20499;-52
2022/08/26 08:31:19;;;;;;;6.40;5.80;;;31.50;63.00;;;;;;5081945;27;20576;-52
2022/08/26 08:33:46;;;;;;;8.30;5.10;;;31.60;63.40;;;;;;5082311;27;20486;-52
2022/08/26 08:36:14;;;;;;;21.23;5.87;;;31.40;62.70;;;;;;5076648;27;20481;-52
2022/08/26 08:38:40;;;;;;;9.10;5.07;;;31.40;63.60;;;;;;5078172;27;21005;-53
2022/08/26 08:41:30;;;;;;;7.07;6.43;;;31.60;63.20;;;;;;5077684;27;20477;-52
2022/08/26 08:44:00;;;;;;;8.10;5.30;;;32.10;61.20;;;;;;5081460;27;20473;-52
2022/08/26 08:46:28;;;;;;;6.23;5.73;;;31.80;60.80;;;;;;5086106;27;20546;-52
2022/08/26 08:48:58;;;;;;;6.23;5.37;;;31.60;61.90;;;;;;5095531;27;20887;-53
2022/08/26 08:51:33;;;;;;;10.50;5.97;;;31.80;62.50;;;;;;5081640;27;20832;-53
2022/08/26 08:54:01;;;;;;;9.37;6.80;;;32.10;60.70;;;;;;5070567;28;20548;-52
2022/08/26 08:56:32;;;;;;;7.00;5.63;;;32.40;60.60;;;;;;5079951;27;20480;-51
2022/08/26 08:59:08;;;;;;;6.57;5.97;;;32.70;60.10;;;;;;5067730;28;20461;-52
2022/08/26 09:01:47;;;;;;;6.97;5.87;;;33.00;59.70;;;;;;5068814;27;21133;-52
2022/08/26 09:04:29;;;;;;;5.90;5.40;;;33.30;59.90;;;;;;5084533;27;20468;-52
2022/08/26 09:06:59;;;;;;;6.10;5.07;;;33.30;58.10;;;;;;5084750;27;20503;-52
2022/08/26 09:09:32;;;;;;;6.30;5.67;;;33.10;58.10;;;;;;5079241;27;20447;-52
2022/08/26 09:12:01;;;;;;;6.97;5.40;;;32.70;57.70;;;;;;5081229;27;21204;-52
2022/08/26 09:14:28;;;;;;;7.53;6.43;;;32.80;59.60;;;;;;5078109;27;20474;-52
2022/08/26 09:17:04;;;;;;;16.40;6.10;;;32.90;58.90;;;;;;5077217;27;22069;-52
2022/08/26 09:19:37;;;;;;;7.53;6.80;;;33.00;58.50;;;;;;5079194;27;20468;-52
2022/08/26 09:22:04;;;;;;;6.40;5.43;;;33.10;59.60;;;;;;5077210;27;20472;-51
2022/08/26 09:24:33;;;;;;;7.37;5.17;;;33.10;57.80;;;;;;5080397;27;20465;-52
2022/08/26 09:27:01;;;;;;;6.50;4.83;;;33.10;58.50;;;;;;5079234;27;20858;-52
2022/08/26 09:29:30;;;;;;;5.83;5.33;;;33.30;58.70;;;;;;5081173;27;20478;-53
2022/08/26 09:32:18;;;;;;;5.80;5.13;;;33.20;58.30;;;;;;5082537;27;20535;-52
2022/08/26 09:34:56;;;;;;;11.37;5.50;;;33.30;58.20;;;;;;5080385;27;20484;-52
2022/08/26 09:37:40;;;;;;;6.90;5.40;;;33.30;57.60;;;;;;5095938;27;20486;-52
2022/08/26 09:40:18;;;;;;;6.20;5.23;;;33.00;58.30;;;;;;5073006;27;20502;-52
2022/08/26 09:42:46;;;;;;;6.03;5.43;;;33.10;58.90;;;;;;5094432;27;20488;-52
2022/08/26 09:45:14;;;;;;;5.43;4.90;;;32.90;57.30;;;;;;5084438;27;20997;-52
2022/08/26 09:47:52;;;;;;;10.20;5.83;;;32.70;57.50;;;;;;5078604;27;21140;-52
2022/08/26 09:50:25;;;;;;;9.80;6.30;;;32.70;57.60;;;;;;5084984;27;20911;-51
2022/08/26 09:53:05;;;;;;;6.80;5.80;;;32.50;57.70;;;;;;5074573;27;20484;-53
2022/08/26 09:55:32;;;;;;;5.63;5.13;;;32.70;58.20;;;;;;5084939;27;20560;-52
2022/08/26 09:58:00;;;;;;;6.30;5.60;;;32.70;58.70;;;;;;5081441;27;20488;-52
2022/08/26 10:00:32;;;;;;;5.80;5.30;;;32.90;57.00;;;;;;5084515;27;20486;-51
2022/08/26 10:03:01;;;;;;;5.90;5.30;;;33.00;58.40;;;;;;5083953;27;20481;-51
2022/08/26 10:05:31;;;;;;;7.40;5.57;;;33.50;57.10;;;;;;5084382;27;20473;-51
2022/08/26 10:07:59;;;;;;;6.00;5.10;;;33.80;57.60;;;;;;5076645;27;20942;-51
2022/08/26 10:10:31;;;;;;;6.47;5.10;;;34.20;56.60;;;;;;5106687;27;20476;-52
2022/08/26 10:13:05;;;;;;;5.50;5.00;;;34.30;57.20;;;;;;5081945;27;20518;-51
2022/08/26 10:15:41;;;;;;;6.00;4.93;;;34.80;56.60;;;;;;5081173;27;20467;-52
2022/08/26 10:18:12;;;;;;;4.93;4.50;;;34.90;55.50;;;;;;5078194;27;20472;-51
2022/08/26 10:20:49;;;;;;;6.63;4.80;;;35.00;55.40;;;;;;5063358;28;20458;-51
2022/08/26 10:23:18;;;;;;;4.80;4.40;;;35.10;54.30;;;;;;5077192;27;20992;-51
2022/08/26 10:25:51;;;;;;;5.90;5.27;;;35.40;54.80;;;;;;5104527;27;21027;-52
2022/08/26 10:28:27;;;;;;;4.30;3.97;;;35.60;54.90;;;;;;5080973;27;20481;-52
2022/08/26 10:31:00;;;;;;;4.80;4.17;;;35.70;52.10;;;;;;5082248;27;20473;-51
2022/08/26 10:33:27;;;;;;;5.23;4.67;;;35.80;53.70;;;;;;5084165;27;20469;-51
2022/08/26 10:35:57;;;;;;;5.87;5.27;;;35.80;53.80;;;;;;5074282;27;20452;-51
2022/08/26 10:38:29;;;;;;;6.00;5.50;;;35.90;52.30;;;;;;5074242;27;21140;-50
2022/08/26 10:41:01;;;;;;;12.27;4.93;;;35.70;52.10;;;;;;5098419;27;20477;-52
2022/08/26 10:43:33;;;;;;;6.10;4.93;;;35.70;52.50;;;;;;5080001;27;20985;-51
2022/08/26 10:46:03;;;;;;;3.93;3.63;;;35.60;51.30;;;;;;5081382;27;20924;-51
2022/08/26 10:48:37;;;;;;;3.97;3.67;;;35.50;51.60;;;;;;5079473;27;20811;-51
2022/08/26 10:51:05;;;;;;;4.97;4.20;;;35.10;52.10;;;;;;5083915;27;21030;-50
2022/08/26 10:53:41;;;;;;;5.23;4.23;;;34.80;53.10;;;;;;5078624;27;20578;-51
2022/08/26 10:56:27;;;;;;;4.13;3.83;;;34.80;52.90;;;;;;5082391;27;20508;-50
2022/08/26 10:59:01;;;;;;;6.13;4.50;;;34.60;52.40;;;;;;5068471;27;20437;-51
2022/08/26 11:01:44;;;;;;;6.30;5.23;;;34.60;55.10;;;;;;5082562;27;20448;-51
2022/08/26 11:04:23;;;;;;;6.67;5.87;;;34.60;54.20;;;;;;5084600;27;20509;-50
2022/08/26 11:07:32;;;;;;;7.93;5.77;;;34.30;55.30;;;;;;5068685;27;20933;-50
2022/08/26 11:10:00;;;;;;;6.13;5.63;;;34.30;55.30;;;;;;5081286;27;20455;-50
2022/08/26 11:12:57;;;;;;;6.67;5.50;;;34.20;55.10;;;;;;5082571;27;20848;-50
2022/08/26 11:16:09;;;;;;;7.10;6.40;;;34.20;54.90;;;;;;5072946;27;20854;-52
2022/08/26 11:18:41;;;;;;;5.77;5.27;;;34.20;55.40;;;;;;5076995;27;20761;-50
2022/08/26 11:21:47;;;;;;;8.10;5.60;;;34.20;55.20;;;;;;5080206;27;20448;-50
2022/08/26 11:24:56;;;;;;;5.80;5.03;;;34.10;55.50;;;;;;5073029;27;20459;-51
2022/08/26 11:28:03;;;;;;;7.30;6.30;;;33.80;55.40;;;;;;5073325;27;20444;-51
2022/08/26 11:30:47;;;;;;;6.47;5.80;;;33.80;55.90;;;;;;5078280;27;20575;-49
2022/08/26 11:33:53;;;;;;;7.87;6.60;;;33.60;56.20;;;;;;5081324;27;20558;-48
2022/08/26 11:36:44;;;;;;;7.20;6.50;;;33.60;57.20;;;;;;5070563;27;20451;-52
2022/08/26 11:39:18;;;;;;;9.70;7.30;;;33.40;57.10;;;;;;5078655;27;20491;-51
2022/08/26 11:41:48;;;;;;;10.40;6.83;;;33.40;57.60;;;;;;5078300;27;21934;-49
2022/08/26 11:44:18;;;;;;;9.37;7.03;;;33.50;57.00;;;;;;5079354;27;20469;-49
2022/08/26 11:46:53;;;;;;;7.00;6.40;;;33.70;57.10;;;;;;5068509;28;20461;-49
2022/08/26 11:49:20;;;;;;;11.23;7.43;;;33.80;56.80;;;;;;5072160;27;20905;-50
2022/08/26 11:51:48;;;;;;;9.10;7.37;;;34.10;56.70;;;;;;5080756;27;20481;-49
2022/08/26 11:54:17;;;;;;;10.33;7.20;;;34.20;56.90;;;;;;5097256;27;20446;-50
2022/08/26 11:56:46;;;;;;;8.57;7.60;;;34.10;55.70;;;;;;5083789;27;20459;-50
2022/08/26 11:59:17;;;;;;;10.77;8.37;;;34.10;56.70;;;;;;5082289;27;21278;-50
2022/08/26 12:01:48;;;;;;;8.13;7.33;;;34.10;57.00;;;;;;5074218;27;20483;-49
2022/08/26 12:04:27;;;;;;;8.27;7.07;;;34.00;56.90;;;;;;5078941;27;20918;-50
2022/08/26 12:06:56;;;;;;;9.20;8.30;;;34.10;57.40;;;;;;5092050;27;20449;-49
2022/08/26 12:09:25;;;;;;;9.10;7.77;;;34.30;57.20;;;;;;5085112;27;20482;-50
2022/08/26 12:11:54;;;;;;;9.10;8.17;;;34.40;56.50;;;;;;5080873;27;20744;-49
2022/08/26 12:14:23;;;;;;;8.70;7.73;;;34.60;55.90;;;;;;5075996;27;20874;-49
2022/08/26 12:16:52;;;;;;;7.60;6.90;;;34.40;55.70;;;;;;5062776;28;20523;-50
2022/08/26 12:19:26;;;;;;;7.63;6.70;;;34.40;55.80;;;;;;5071547;28;20482;-50
2022/08/26 12:22:01;;;;;;;8.07;7.17;;;34.30;55.40;;;;;;5083390;27;20441;-49
2022/08/26 12:24:29;;;;;;;9.20;8.30;;;34.30;56.60;;;;;;5063955;28;20452;-49
2022/08/26 12:27:11;;;;;;;8.67;7.77;;;34.30;56.40;;;;;;5055047;28;21015;-51
2022/08/26 12:29:38;;;;;;;7.50;6.90;;;34.40;55.60;;;;;;5053541;28;20560;-51
2022/08/26 12:32:12;;;;;;;7.20;6.50;;;34.30;55.70;;;;;;5054773;28;20482;-50
2022/08/26 12:34:39;;;;;;;8.23;7.50;;;34.10;55.50;;;;;;5055606;28;20538;-51
2022/08/26 12:37:11;;;;;;;9.07;8.07;;;33.90;56.30;;;;;;5054923;28;20888;-51
2022/08/26 12:39:40;;;;;;;11.10;8.07;;;33.90;56.30;;;;;;5056688;28;20450;-50
2022/08/26 12:42:23;;;;;;;9.30;8.30;;;33.90;56.90;;;;;;5055922;28;20453;-50
2022/08/26 12:44:58;;;;;;;9.30;8.40;;;34.00;56.40;;;;;;5055153;28;20919;-50
2022/08/26 12:47:28;;;;;;;9.53;7.80;;;33.90;57.00;;;;;;5057008;28;20610;-50
2022/08/26 12:50:04;;;;;;;11.67;8.70;;;33.90;56.40;;;;;;5062549;28;20480;-51
2022/08/26 12:52:40;;;;;;;9.23;8.43;;;33.90;56.90;;;;;;5080272;28;20481;-50
2022/08/26 12:55:19;;;;;;;9.93;8.27;;;33.90;56.90;;;;;;5076098;28;20462;-50
2022/08/26 12:57:46;;;;;;;12.97;9.07;;;33.70;57.10;;;;;;5077509;28;20462;-50
2022/08/26 13:00:26;;;;;;;8.93;7.87;;;33.90;57.60;;;;;;5078149;28;20980;-50
2022/08/26 13:02:53;;;;;;;9.23;8.33;;;33.90;57.10;;;;;;5085479;28;20451;-49
2022/08/26 13:05:22;;;;;;;8.87;8.07;;;33.90;57.40;;;;;;5088697;28;20573;-50
2022/08/26 13:08:09;;;;;;;12.23;9.80;;;33.60;56.50;;;;;;5083507;28;20455;-53